Terminal Aerodrome Forecast
Issued by NWS

Home | Current Version | Previous Version | Text Only | Print | Product List | Glossary On
Versions: 1 2 3 4 5 6 7 8 9 10 11 12 13
000
FTUS46 KOTX 262334
TAFCOE
TAF
KCOE 262334Z 2700/2724 28008KT P6SM SCT150 BKN250
     FM270400 11005KT P6SM SCT200
     FM271100 15008KT P6SM SCT090 BKN120
     FM272000 23009G16KT P6SM SCT080 SCT200=

USA.gov is the U.S. government's official web portal to all federal, state and local government web resources and services.